Time;durP1;ratioP1;P1;durP2;ratioP2;P2;SDS_P1;SDS_P2;PMS_P1;PMS_P2;Temp;Humidity;BMP_temperature;BMP_pressure;BME280_temperature;BME280_humidity;BME280_pressure;Samples;Min_cycle;Max_cycle;Signal;HPM_P1;HPM_P2
2023/02/06 00:00:34;;;;;;;20.90;18.80;;;-4.30;99.90;;;;;;4831205;29;20245;-45
2023/02/06 00:03:00;;;;;;;21.25;19.05;;;-4.40;99.90;;;;;;4831633;29;20665;-44
2023/02/06 00:05:26;;;;;;;21.83;19.63;;;-4.40;99.90;;;;;;4831532;29;20205;-46
2023/02/06 00:07:52;;;;;;;20.73;18.73;;;-4.40;99.90;;;;;;4831397;29;20283;-45
2023/02/06 00:10:17;;;;;;;21.20;19.00;;;-4.50;99.90;;;;;;4831388;29;20430;-44
2023/02/06 00:12:43;;;;;;;20.93;18.97;;;-4.50;99.90;;;;;;4844065;29;20653;-49
2023/02/06 00:15:08;;;;;;;20.50;18.40;;;-4.60;99.90;;;;;;4831245;29;20264;-45
2023/02/06 00:17:36;;;;;;;19.83;17.87;;;-4.50;99.90;;;;;;4845309;29;20197;-47
2023/02/06 00:20:03;;;;;;;19.25;17.25;;;-4.60;99.90;;;;;;4830757;29;20216;-44
2023/02/06 00:22:29;;;;;;;19.83;17.92;;;-4.60;99.90;;;;;;4831032;29;20201;-45
2023/02/06 00:24:55;;;;;;;23.53;18.60;;;-4.70;99.90;;;;;;4844920;29;20297;-50
2023/02/06 00:27:20;;;;;;;20.80;18.60;;;-4.70;99.90;;;;;;4831042;29;20625;-47
2023/02/06 00:29:46;;;;;;;21.77;18.80;;;-4.70;99.90;;;;;;4831470;29;20216;-46
2023/02/06 00:32:11;;;;;;;21.00;19.10;;;-4.70;99.90;;;;;;4831284;29;20445;-46
2023/02/06 00:34:37;;;;;;;21.00;18.97;;;-4.70;99.90;;;;;;4830594;29;20208;-50
2023/02/06 00:37:02;;;;;;;21.73;19.43;;;-4.70;99.90;;;;;;4830806;29;20272;-49
2023/02/06 00:39:28;;;;;;;21.20;19.10;;;-4.60;99.90;;;;;;4830518;29;20655;-46
2023/02/06 00:41:54;;;;;;;20.80;18.70;;;-4.60;99.90;;;;;;4830367;29;20199;-44
2023/02/06 00:44:20;;;;;;;21.00;19.00;;;-4.70;99.90;;;;;;4830616;29;20197;-50
2023/02/06 00:46:46;;;;;;;20.60;18.50;;;-4.80;99.90;;;;;;4830943;29;20957;-49
2023/02/06 00:49:13;;;;;;;21.13;19.15;;;-4.80;99.90;;;;;;4830739;29;20699;-47
2023/02/06 00:51:38;;;;;;;20.75;18.75;;;-4.80;99.90;;;;;;4830806;29;20195;-47
2023/02/06 00:54:05;;;;;;;20.43;18.43;;;-4.90;99.90;;;;;;4830498;29;20249;-48
2023/02/06 00:56:30;;;;;;;19.08;17.23;;;-4.80;99.90;;;;;;4830667;29;20794;-46
2023/02/06 00:58:56;;;;;;;20.53;18.63;;;-4.90;99.90;;;;;;4830844;29;20202;-47
2023/02/06 01:01:22;;;;;;;18.87;17.17;;;-5.00;99.90;;;;;;4830563;29;20645;-47
2023/02/06 01:03:47;;;;;;;19.60;17.60;;;-4.90;99.90;;;;;;4830457;29;20197;-45
2023/02/06 01:06:13;;;;;;;20.60;18.60;;;-4.90;99.90;;;;;;4830287;29;20209;-45
2023/02/06 01:08:39;;;;;;;20.10;18.23;;;-4.90;99.90;;;;;;4830344;29;20197;-44
2023/02/06 01:11:17;;;;;;;20.40;18.40;;;-4.90;99.90;;;;;;4829979;29;20185;-49
2023/02/06 01:13:43;;;;;;;19.42;17.63;;;-4.80;99.90;;;;;;4830256;29;20228;-48
2023/02/06 01:16:11;;;;;;;18.83;17.10;;;-4.80;99.90;;;;;;4829965;29;20189;-49
2023/02/06 01:18:37;;;;;;;22.13;20.00;;;-4.70;99.90;;;;;;4844498;29;20190;-47
2023/02/06 01:21:14;;;;;;;20.67;18.65;;;-4.70;99.90;;;;;;4830109;29;20641;-47
2023/02/06 01:23:40;;;;;;;21.60;19.45;;;-4.60;99.90;;;;;;4829956;29;20189;-44
2023/02/06 01:26:07;;;;;;;20.93;18.70;;;-4.60;99.90;;;;;;4829730;29;20195;-45
2023/02/06 01:28:41;;;;;;;19.80;17.95;;;-4.60;99.90;;;;;;4830483;29;21084;-45
2023/02/06 01:31:21;;;;;;;20.15;18.45;;;-4.60;99.90;;;;;;4830005;29;20727;-45
2023/02/06 01:33:48;;;;;;;20.50;18.55;;;-4.60;99.90;;;;;;4830185;29;20188;-47
2023/02/06 01:36:14;;;;;;;21.10;19.05;;;-4.60;99.90;;;;;;4829701;29;20293;-48
2023/02/06 01:38:41;;;;;;;23.10;19.65;;;-4.60;99.90;;;;;;4829697;29;20197;-48
2023/02/06 01:41:07;;;;;;;20.40;18.10;;;-4.70;99.90;;;;;;4828901;29;20189;-46
2023/02/06 01:43:37;;;;;;;20.10;18.27;;;-4.60;99.90;;;;;;4829314;29;20613;-45
2023/02/06 01:46:04;;;;;;;20.85;18.80;;;-4.60;99.90;;;;;;4828153;29;20716;-46
2023/02/06 01:48:38;;;;;;;19.73;18.02;;;-4.60;99.90;;;;;;4830073;29;20233;-47
2023/02/06 01:51:06;;;;;;;20.45;18.60;;;-4.60;99.90;;;;;;4829969;29;20195;-48
2023/02/06 01:53:33;;;;;;;21.20;19.23;;;-4.60;99.90;;;;;;4829706;29;20279;-44
2023/02/06 01:56:02;;;;;;;19.95;18.13;;;-4.60;99.90;;;;;;4829772;29;20694;-47
2023/02/06 01:58:42;;;;;;;20.92;18.73;;;-4.60;99.90;;;;;;4829730;29;20272;-49
2023/02/06 02:01:09;;;;;;;20.40;18.52;;;-4.50;99.90;;;;;;4830198;29;20214;-50
2023/02/06 02:03:38;;;;;;;19.70;17.73;;;-4.50;99.90;;;;;;4829933;29;20632;-48
2023/02/06 02:06:09;;;;;;;20.55;18.40;;;-4.60;99.90;;;;;;4829439;29;20185;-44
2023/02/06 02:08:43;;;;;;;20.85;18.75;;;-4.50;99.90;;;;;;4829758;29;20209;-45
2023/02/06 02:11:13;;;;;;;20.15;18.25;;;-4.60;99.90;;;;;;4829279;29;20190;-45
2023/02/06 02:13:39;;;;;;;18.95;17.25;;;-4.60;99.90;;;;;;4829601;29;20553;-46
2023/02/06 02:16:30;;;;;;;20.43;18.27;;;-4.50;99.90;;;;;;4829548;29;20190;-44
2023/02/06 02:19:14;;;;;;;20.02;18.15;;;-4.50;99.90;;;;;;4829492;29;20463;-44
2023/02/06 02:22:04;;;;;;;19.95;18.05;;;-4.50;99.90;;;;;;4829296;29;20194;-44
2023/02/06 02:24:44;;;;;;;18.60;16.75;;;-4.50;99.90;;;;;;4829406;29;20240;-44
2023/02/06 02:27:20;;;;;;;19.67;17.70;;;-4.40;99.90;;;;;;4828887;29;20759;-47
2023/02/06 02:30:18;;;;;;;20.30;18.40;;;-4.40;99.90;;;;;;4829465;29;20183;-46
2023/02/06 02:33:11;;;;;;;21.13;18.92;;;-4.40;99.90;;;;;;4829550;29;20197;-45
2023/02/06 02:36:03;;;;;;;19.02;17.23;;;-4.40;99.90;;;;;;4829575;29;20193;-47
2023/02/06 02:38:52;;;;;;;19.55;17.65;;;-4.40;99.90;;;;;;4833095;29;20254;-48
2023/02/06 02:41:20;;;;;;;18.92;17.30;;;-4.40;99.90;;;;;;4833425;29;20193;-45
2023/02/06 02:44:05;;;;;;;20.58;18.58;;;-4.40;99.90;;;;;;4832512;29;20198;-45
2023/02/06 02:46:36;;;;;;;19.88;17.83;;;-4.40;99.90;;;;;;4832515;29;20244;-48
2023/02/06 02:49:10;;;;;;;22.75;18.17;;;-4.50;99.90;;;;;;4832860;29;20181;-46
2023/02/06 02:51:38;;;;;;;19.67;17.80;;;-4.60;99.90;;;;;;4832765;29;20192;-47
2023/02/06 02:54:04;;;;;;;20.25;18.35;;;-4.60;99.90;;;;;;4832616;29;20185;-43
2023/02/06 02:56:32;;;;;;;20.13;18.02;;;-4.60;99.90;;;;;;4831933;29;20201;-47
2023/02/06 02:59:02;;;;;;;18.73;16.98;;;-4.70;99.90;;;;;;4832608;29;20273;-46
2023/02/06 03:01:34;;;;;;;20.42;18.40;;;-4.60;99.90;;;;;;4832022;29;20194;-47
2023/02/06 03:04:05;;;;;;;19.48;17.58;;;-4.60;99.90;;;;;;4832415;29;20202;-47
2023/02/06 03:06:52;;;;;;;22.60;18.90;;;-4.70;99.90;;;;;;4832191;29;20230;-47
2023/02/06 03:09:27;;;;;;;19.80;17.95;;;-4.70;99.90;;;;;;4832364;29;20228;-47
2023/02/06 03:12:15;;;;;;;19.65;17.80;;;-4.70;99.90;;;;;;4832231;29;20185;-44
2023/02/06 03:14:54;;;;;;;20.27;18.00;;;-4.70;99.90;;;;;;4832630;29;20246;-49
2023/02/06 03:17:32;;;;;;;19.23;17.40;;;-4.70;99.90;;;;;;4832206;29;20889;-46
2023/02/06 03:19:58;;;;;;;19.92;17.88;;;-4.70;99.90;;;;;;4832170;29;20197;-45
2023/02/06 03:22:26;;;;;;;18.83;16.92;;;-4.70;99.90;;;;;;4832072;29;20208;-44
2023/02/06 03:24:54;;;;;;;19.48;17.75;;;-4.70;99.90;;;;;;4831976;29;20600;-43
2023/02/06 03:27:21;;;;;;;19.52;17.73;;;-4.70;99.90;;;;;;4831734;29;20220;-45
2023/02/06 03:29:49;;;;;;;20.20;17.33;;;-4.70;99.90;;;;;;4831441;29;20204;-47
2023/02/06 03:32:19;;;;;;;19.33;17.60;;;-4.70;99.90;;;;;;4832143;29;20194;-43
2023/02/06 03:34:51;;;;;;;20.42;18.30;;;-4.70;99.90;;;;;;4832159;29;20189;-43
2023/02/06 03:37:19;;;;;;;20.70;18.58;;;-4.70;99.90;;;;;;4832204;29;20197;-48
2023/02/06 03:39:45;;;;;;;20.25;18.15;;;-4.70;99.90;;;;;;4831516;29;20193;-43
2023/02/06 03:42:12;;;;;;;20.77;18.60;;;-4.60;99.90;;;;;;4831920;29;20186;-44
2023/02/06 03:44:42;;;;;;;23.52;18.67;;;-4.60;99.90;;;;;;4831358;29;20304;-43
2023/02/06 03:47:10;;;;;;;20.33;18.23;;;-4.70;99.90;;;;;;4831607;29;20218;-49
2023/02/06 03:49:38;;;;;;;20.77;18.65;;;-4.60;99.90;;;;;;4832063;29;20320;-46
2023/02/06 03:52:12;;;;;;;20.33;18.23;;;-4.70;99.90;;;;;;4831059;29;20292;-46
2023/02/06 03:54:43;;;;;;;20.10;18.00;;;-4.70;99.90;;;;;;4829783;29;21049;-44
2023/02/06 03:57:13;;;;;;;19.33;17.52;;;-4.70;99.90;;;;;;4831473;29;20258;-46
2023/02/06 03:59:38;;;;;;;20.13;18.20;;;-4.70;99.90;;;;;;4831472;29;20191;-46
2023/02/06 04:02:04;;;;;;;20.70;18.50;;;-4.70;99.90;;;;;;4831558;29;20969;-46
2023/02/06 04:04:39;;;;;;;23.48;18.63;;;-4.70;99.90;;;;;;4831664;29;20270;-48
2023/02/06 04:07:21;;;;;;;21.55;19.20;;;-4.70;99.90;;;;;;4831046;29;20268;-50
2023/02/06 04:09:47;;;;;;;20.77;18.58;;;-4.70;99.90;;;;;;4831327;29;20207;-49
2023/02/06 04:12:14;;;;;;;22.83;20.40;;;-4.60;99.90;;;;;;4831374;29;20194;-49
2023/02/06 04:14:40;;;;;;;22.33;19.73;;;-4.60;99.90;;;;;;4831103;29;20284;-45
2023/02/06 04:17:06;;;;;;;23.65;19.45;;;-4.60;99.90;;;;;;4831328;29;20288;-48
2023/02/06 04:19:32;;;;;;;23.80;19.55;;;-4.60;99.90;;;;;;4830697;29;20193;-46
2023/02/06 04:21:58;;;;;;;21.70;19.40;;;-4.60;99.90;;;;;;4830537;29;20201;-46
2023/02/06 04:24:24;;;;;;;21.97;19.27;;;-4.60;99.90;;;;;;4828743;29;20326;-44
2023/02/06 04:26:49;;;;;;;24.10;19.70;;;-4.60;99.90;;;;;;4830268;29;20209;-45
2023/02/06 04:29:15;;;;;;;24.80;19.50;;;-4.60;99.90;;;;;;4843860;29;20201;-44
2023/02/06 04:31:41;;;;;;;21.30;19.20;;;-4.60;99.90;;;;;;4830175;29;20232;-46
2023/02/06 04:34:07;;;;;;;23.67;20.13;;;-4.60;99.90;;;;;;4829341;29;20197;-46
2023/02/06 04:36:33;;;;;;;26.85;19.85;;;-4.60;99.90;;;;;;4829948;29;20489;-50
2023/02/06 04:38:58;;;;;;;21.67;19.23;;;-4.50;99.90;;;;;;4830008;29;20732;-46
2023/02/06 04:41:25;;;;;;;23.80;19.20;;;-4.50;99.90;;;;;;4830180;29;20436;-44
2023/02/06 04:43:51;;;;;;;23.85;20.15;;;-4.50;99.90;;;;;;4830407;29;20675;-45
2023/02/06 04:46:17;;;;;;;21.95;19.65;;;-4.50;99.90;;;;;;4843780;29;20277;-44
2023/02/06 04:48:44;;;;;;;22.52;20.30;;;-4.50;99.90;;;;;;4829635;29;20248;-48
2023/02/06 04:51:11;;;;;;;24.27;18.93;;;-4.50;99.90;;;;;;4843769;29;20320;-45
2023/02/06 04:53:36;;;;;;;21.83;18.77;;;-4.40;99.90;;;;;;4842963;29;20250;-46
2023/02/06 04:56:07;;;;;;;21.53;18.97;;;-4.40;99.90;;;;;;4829514;29;20189;-48
2023/02/06 04:58:33;;;;;;;22.80;19.85;;;-4.40;99.90;;;;;;4829258;29;20189;-46
2023/02/06 05:01:00;;;;;;;25.42;20.58;;;-4.40;99.90;;;;;;4829784;29;20857;-44
2023/02/06 05:03:25;;;;;;;21.35;18.85;;;-4.30;99.90;;;;;;4829077;29;20196;-45
2023/02/06 05:05:52;;;;;;;22.77;19.70;;;-4.20;99.90;;;;;;4828863;29;20233;-45
2023/02/06 05:08:18;;;;;;;21.33;19.05;;;-4.20;99.90;;;;;;4828649;29;20239;-45
2023/02/06 05:10:44;;;;;;;26.35;22.00;;;-4.10;99.90;;;;;;4828424;29;20193;-46
2023/02/06 05:13:10;;;;;;;22.00;19.70;;;-4.10;99.90;;;;;;4829053;29;20543;-46
2023/02/06 05:15:35;;;;;;;24.90;20.73;;;-4.10;99.90;;;;;;4843285;29;20665;-45
2023/02/06 05:18:03;;;;;;;24.75;19.83;;;-4.00;99.90;;;;;;4828201;29;20439;-44
2023/02/06 05:20:29;;;;;;;24.98;20.65;;;-4.00;99.90;;;;;;4829183;29;20196;-47
2023/02/06 05:22:54;;;;;;;25.33;21.13;;;-3.90;99.90;;;;;;4826928;29;20292;-45
2023/02/06 05:25:20;;;;;;;22.20;19.70;;;-3.90;99.90;;;;;;4828600;29;20519;-47
2023/02/06 05:27:46;;;;;;;24.87;21.37;;;-4.00;99.90;;;;;;4829086;29;20747;-45
2023/02/06 05:30:13;;;;;;;22.50;20.17;;;-3.90;99.90;;;;;;4829136;29;20228;-50
2023/02/06 05:32:39;;;;;;;23.17;20.63;;;-3.90;99.90;;;;;;4829102;29;20924;-46
2023/02/06 05:35:05;;;;;;;23.40;20.90;;;-3.90;99.90;;;;;;4829025;29;20273;-45
2023/02/06 05:37:32;;;;;;;24.30;20.20;;;-3.90;99.90;;;;;;4828314;29;20201;-46
2023/02/06 05:39:58;;;;;;;22.47;20.20;;;-3.80;99.90;;;;;;4829519;29;20655;-48
2023/02/06 05:42:23;;;;;;;22.43;20.03;;;-3.80;99.90;;;;;;4828890;29;20438;-45
2023/02/06 05:44:49;;;;;;;26.00;21.17;;;-3.80;99.90;;;;;;4828790;29;20453;-47
2023/02/06 05:47:15;;;;;;;27.23;21.30;;;-3.60;99.90;;;;;;4828419;29;20216;-47
2023/02/06 05:49:42;;;;;;;34.63;23.00;;;-3.70;99.90;;;;;;4827871;29;20505;-46
2023/02/06 05:52:09;;;;;;;26.10;20.98;;;-3.50;99.90;;;;;;4829824;29;20272;-46
2023/02/06 05:54:35;;;;;;;24.60;20.23;;;-3.50;99.90;;;;;;4830394;29;20189;-46
2023/02/06 05:57:00;;;;;;;25.97;21.47;;;-3.40;99.90;;;;;;4829291;29;20193;-47
2023/02/06 05:59:26;;;;;;;27.83;20.73;;;-3.30;99.90;;;;;;4843175;29;20550;-48
2023/02/06 06:01:51;;;;;;;24.83;22.23;;;-3.20;99.90;;;;;;4829389;29;20607;-48
2023/02/06 06:04:17;;;;;;;22.40;20.07;;;-3.10;99.90;;;;;;4842984;29;20510;-47
2023/02/06 06:06:43;;;;;;;23.97;21.43;;;-3.10;99.90;;;;;;4829436;29;20235;-46
2023/02/06 06:09:08;;;;;;;24.20;20.17;;;-3.10;99.90;;;;;;4828883;29;20425;-45
2023/02/06 06:11:34;;;;;;;25.93;21.30;;;-3.10;99.90;;;;;;4844323;29;20543;-47
2023/02/06 06:14:00;;;;;;;25.50;22.87;;;-3.20;99.90;;;;;;4846357;29;20200;-44
2023/02/06 06:16:25;;;;;;;24.57;22.10;;;-3.20;99.90;;;;;;4831876;29;20522;-44
2023/02/06 06:18:51;;;;;;;28.30;22.87;;;-3.20;99.90;;;;;;4832751;29;20185;-46
2023/02/06 06:21:17;;;;;;;23.60;20.70;;;-3.20;99.90;;;;;;4832268;29;20837;-45
2023/02/06 06:23:42;;;;;;;24.73;22.23;;;-3.20;99.90;;;;;;4832444;29;20318;-45
2023/02/06 06:26:08;;;;;;;23.87;21.17;;;-3.20;99.90;;;;;;4832454;29;20197;-47
2023/02/06 06:28:37;;;;;;;24.23;21.33;;;-3.20;99.90;;;;;;4846491;29;20196;-45
2023/02/06 06:31:05;;;;;;;22.58;20.15;;;-3.10;99.90;;;;;;4832410;29;20196;-45
2023/02/06 06:33:31;;;;;;;27.25;23.40;;;-3.20;99.90;;;;;;4832554;29;20702;-44
2023/02/06 06:35:57;;;;;;;24.10;21.70;;;-3.20;99.90;;;;;;4846241;29;20527;-45
2023/02/06 06:38:23;;;;;;;23.87;21.37;;;-3.20;99.90;;;;;;4832536;29;20636;-46
2023/02/06 06:40:48;;;;;;;25.07;22.50;;;-3.20;99.90;;;;;;4832158;29;20280;-49
2023/02/06 06:43:14;;;;;;;24.73;22.10;;;-3.20;99.90;;;;;;4832067;29;20442;-46
2023/02/06 06:45:40;;;;;;;26.60;21.43;;;-3.20;99.90;;;;;;4832279;29;20238;-44
2023/02/06 06:48:05;;;;;;;23.40;20.50;;;-3.20;99.90;;;;;;4845792;29;20221;-48
2023/02/06 06:50:31;;;;;;;25.30;22.03;;;-3.10;99.90;;;;;;4832411;29;20558;-47
2023/02/06 06:52:56;;;;;;;27.03;21.70;;;-3.10;99.90;;;;;;4831617;29;20228;-47
2023/02/06 06:55:22;;;;;;;24.50;21.80;;;-3.10;99.90;;;;;;4831954;29;20226;-46
2023/02/06 06:57:48;;;;;;;24.93;22.37;;;-3.10;99.90;;;;;;4831963;29;20652;-47
2023/02/06 07:00:15;;;;;;;28.87;22.87;;;-3.10;99.90;;;;;;4831558;29;20440;-45
2023/02/06 07:02:41;;;;;;;26.33;23.52;;;-3.10;99.90;;;;;;4831888;29;20672;-48
2023/02/06 07:05:07;;;;;;;24.45;21.35;;;-3.00;99.90;;;;;;4831730;29;20302;-47
2023/02/06 07:07:33;;;;;;;25.97;22.60;;;-3.00;99.90;;;;;;4831576;29;20213;-45
2023/02/06 07:09:59;;;;;;;25.10;22.47;;;-3.00;99.90;;;;;;4831770;29;20426;-47
2023/02/06 07:12:26;;;;;;;25.92;23.17;;;-3.00;99.90;;;;;;4830083;29;20776;-45
2023/02/06 07:14:52;;;;;;;25.13;22.27;;;-3.00;99.90;;;;;;4831727;29;20190;-45
2023/02/06 07:17:19;;;;;;;25.57;22.90;;;-3.00;99.90;;;;;;4831834;29;20193;-45
2023/02/06 07:19:46;;;;;;;24.85;22.20;;;-3.00;99.90;;;;;;4845014;29;20811;-47
2023/02/06 07:22:13;;;;;;;25.85;21.63;;;-2.90;99.90;;;;;;4831383;29;20265;-45
2023/02/06 07:24:39;;;;;;;25.80;22.20;;;-2.90;99.90;;;;;;4831215;29;20317;-43
2023/02/06 07:27:05;;;;;;;24.30;21.67;;;-2.90;99.90;;;;;;4831157;29;20217;-46
2023/02/06 07:29:30;;;;;;;26.27;23.20;;;-2.90;99.90;;;;;;4831333;29;20197;-44
2023/02/06 07:31:56;;;;;;;28.43;22.77;;;-2.80;99.90;;;;;;4831414;29;20418;-43
2023/02/06 07:34:22;;;;;;;27.37;23.97;;;-2.70;99.90;;;;;;4831152;29;20430;-42
2023/02/06 07:36:47;;;;;;;27.17;22.37;;;-2.60;99.90;;;;;;4831547;29;20198;-44
2023/02/06 07:39:13;;;;;;;25.93;22.40;;;-2.50;99.90;;;;;;4831603;29;20653;-47
2023/02/06 07:41:39;;;;;;;28.38;24.42;;;-2.40;99.90;;;;;;4831537;29;20534;-47
2023/02/06 07:44:05;;;;;;;29.70;25.40;;;-2.30;99.90;;;;;;4831716;29;20208;-44
2023/02/06 07:46:33;;;;;;;30.83;23.77;;;-2.30;99.90;;;;;;4831018;29;20752;-47
2023/02/06 07:48:59;;;;;;;27.42;24.63;;;-2.30;99.90;;;;;;4831155;29;20181;-45
2023/02/06 07:51:24;;;;;;;29.73;22.90;;;-2.30;99.90;;;;;;4830977;29;20194;-48
2023/02/06 07:53:50;;;;;;;26.60;23.17;;;-2.30;99.90;;;;;;4830819;29;20193;-44
2023/02/06 07:56:18;;;;;;;28.37;24.53;;;-2.30;99.90;;;;;;4830945;29;20545;-47
2023/02/06 07:58:47;;;;;;;28.85;25.40;;;-2.20;99.90;;;;;;4830714;29;20197;-44
2023/02/06 08:01:13;;;;;;;26.73;23.40;;;-2.20;99.90;;;;;;4830925;29;20185;-46
2023/02/06 08:03:38;;;;;;;27.07;24.23;;;-2.10;99.90;;;;;;4830971;29;20201;-47
2023/02/06 08:06:13;;;;;;;25.57;22.70;;;-2.00;99.90;;;;;;4844959;29;20200;-45
2023/02/06 08:08:41;;;;;;;30.73;24.20;;;-2.00;99.90;;;;;;4830630;29;20601;-45
2023/02/06 08:11:08;;;;;;;25.42;22.83;;;-1.90;99.90;;;;;;4830874;29;20261;-44
2023/02/06 08:13:34;;;;;;;30.92;25.40;;;-1.80;99.90;;;;;;4830919;29;20185;-45
2023/02/06 08:16:09;;;;;;;28.73;25.77;;;-1.60;99.90;;;;;;4830555;29;20986;-43
2023/02/06 08:18:36;;;;;;;28.45;24.20;;;-1.60;99.90;;;;;;4830710;29;20430;-49
2023/02/06 08:21:08;;;;;;;28.35;25.27;;;-1.50;99.90;;;;;;4830332;29;20198;-46
2023/02/06 08:23:34;;;;;;;28.80;25.70;;;-1.40;99.90;;;;;;4830489;29;20609;-46
2023/02/06 08:26:20;;;;;;;29.70;24.90;;;-1.50;99.90;;;;;;4830052;29;20191;-46
2023/02/06 08:28:48;;;;;;;28.30;24.25;;;-1.50;99.90;;;;;;4830401;29;20608;-50
2023/02/06 08:31:20;;;;;;;28.95;24.23;;;-1.40;99.90;;;;;;4830521;29;20659;-47
2023/02/06 08:33:47;;;;;;;26.73;23.88;;;-1.40;99.90;;;;;;4829662;29;20196;-45
2023/02/06 08:36:16;;;;;;;29.45;24.92;;;-1.30;99.90;;;;;;4843892;29;20264;-50
2023/02/06 08:38:42;;;;;;;27.27;24.48;;;-1.30;99.90;;;;;;4830626;29;20224;-46
2023/02/06 08:41:25;;;;;;;32.13;25.70;;;-1.30;99.90;;;;;;4830416;29;20212;-46
2023/02/06 08:43:53;;;;;;;28.65;25.65;;;-1.40;99.90;;;;;;4830092;29;20285;-47
2023/02/06 08:46:21;;;;;;;28.15;24.75;;;-1.30;99.90;;;;;;4843734;29;20194;-46
2023/02/06 08:48:47;;;;;;;26.60;23.75;;;-1.20;99.90;;;;;;4829810;29;20181;-44
2023/02/06 08:51:13;;;;;;;28.30;25.40;;;-1.10;99.90;;;;;;4843585;29;20548;-46
2023/02/06 08:53:38;;;;;;;27.33;24.52;;;-1.10;99.90;;;;;;4830419;29;20419;-46
2023/02/06 08:56:07;;;;;;;27.97;24.97;;;-1.10;99.90;;;;;;4829900;29;20246;-45
2023/02/06 08:58:33;;;;;;;29.30;26.33;;;-1.00;99.90;;;;;;4829485;29;20197;-49
2023/02/06 09:01:08;;;;;;;31.88;26.77;;;-0.90;99.90;;;;;;4830040;29;20400;-49
2023/02/06 09:03:35;;;;;;;29.77;26.27;;;-1.00;99.90;;;;;;4830105;29;20572;-46
2023/02/06 09:06:02;;;;;;;28.15;25.15;;;-0.90;99.90;;;;;;4829553;29;20197;-46
2023/02/06 09:08:29;;;;;;;27.92;25.02;;;-1.00;99.90;;;;;;4829805;29;20528;-46
2023/02/06 09:10:54;;;;;;;27.80;24.02;;;-1.00;99.90;;;;;;4829583;29;20592;-48
2023/02/06 09:13:20;;;;;;;29.30;24.60;;;-1.00;99.90;;;;;;4829687;29;20649;-46
2023/02/06 09:15:52;;;;;;;28.40;24.17;;;-1.00;99.90;;;;;;4829789;29;20231;-47
2023/02/06 09:18:18;;;;;;;30.02;24.58;;;-0.90;99.90;;;;;;4829312;29;20193;-46
2023/02/06 09:20:47;;;;;;;25.77;23.13;;;-0.90;99.90;;;;;;4829494;29;20725;-47
2023/02/06 09:23:13;;;;;;;27.70;24.70;;;-0.70;99.90;;;;;;4829420;29;20430;-49
2023/02/06 09:25:39;;;;;;;25.50;23.08;;;-0.60;99.90;;;;;;4828595;29;20252;-46
2023/02/06 09:28:04;;;;;;;28.57;25.67;;;-0.40;99.90;;;;;;4843185;29;20225;-46
2023/02/06 09:30:30;;;;;;;28.67;25.73;;;-0.30;99.90;;;;;;4829288;29;20318;-49
2023/02/06 09:32:56;;;;;;;28.27;25.30;;;-0.20;99.90;;;;;;4829504;29;20431;-48
2023/02/06 09:35:21;;;;;;;29.70;26.50;;;-0.20;99.90;;;;;;4828982;29;20306;-49
2023/02/06 09:37:47;;;;;;;29.40;26.40;;;-0.10;99.90;;;;;;4828896;29;20608;-45
2023/02/06 09:40:18;;;;;;;30.50;27.20;;;0.00;99.90;;;;;;4829111;29;20665;-45
2023/02/06 09:42:44;;;;;;;29.38;26.40;;;0.10;99.90;;;;;;4829549;29;20186;-46
2023/02/06 09:45:17;;;;;;;28.97;25.97;;;0.20;99.90;;;;;;4829078;29;20215;-47
2023/02/06 09:47:58;;;;;;;29.55;26.48;;;0.30;99.90;;;;;;4829197;29;20481;-50
2023/02/06 09:50:49;;;;;;;28.13;25.33;;;0.60;99.90;;;;;;4829359;29;20235;-48
2023/02/06 09:53:21;;;;;;;28.17;25.23;;;0.70;99.90;;;;;;4829267;29;20190;-50
2023/02/06 09:55:52;;;;;;;26.85;24.13;;;0.80;99.90;;;;;;4829004;29;20193;-44
2023/02/06 09:58:44;;;;;;;30.10;27.13;;;0.70;99.90;;;;;;4829332;29;20259;-47
2023/02/06 10:01:31;;;;;;;28.25;25.35;;;0.70;99.90;;;;;;4828804;29;20483;-44
2023/02/06 10:04:21;;;;;;;30.45;27.35;;;0.80;99.90;;;;;;4829265;29;20183;-46
2023/02/06 10:07:28;;;;;;;27.60;24.80;;;0.90;99.90;;;;;;4828711;29;20695;-44
2023/02/06 10:10:05;;;;;;;28.90;26.10;;;1.00;99.90;;;;;;4830752;29;20298;-50
2023/02/06 10:12:37;;;;;;;27.83;24.92;;;0.90;99.90;;;;;;4829159;29;20233;-46
2023/02/06 10:15:13;;;;;;;28.17;25.42;;;0.80;99.90;;;;;;4829155;29;20853;-45
2023/02/06 10:18:13;;;;;;;29.20;26.33;;;0.80;99.90;;;;;;4842910;29;20205;-47
2023/02/06 10:20:51;;;;;;;26.75;24.20;;;0.90;99.90;;;;;;4828521;29;20769;-50
2023/02/06 10:23:38;;;;;;;28.90;25.90;;;1.00;99.90;;;;;;4828985;29;20247;-49
2023/02/06 10:26:11;;;;;;;28.83;26.00;;;1.20;99.90;;;;;;4829135;29;20812;-48
2023/02/06 10:28:39;;;;;;;28.45;25.55;;;1.20;99.90;;;;;;4829202;29;20230;-48
2023/02/06 10:31:29;;;;;;;27.58;25.00;;;1.40;99.90;;;;;;4828769;29;20188;-45
2023/02/06 10:34:16;;;;;;;27.48;24.83;;;1.60;99.90;;;;;;4828879;29;20226;-47
2023/02/06 10:37:00;;;;;;;28.35;25.50;;;1.60;99.90;;;;;;4828611;29;20284;-46
2023/02/06 10:39:32;;;;;;;28.05;25.05;;;1.70;99.90;;;;;;4828860;29;20199;-52
2023/02/06 10:42:04;;;;;;;29.35;26.30;;;1.80;99.90;;;;;;4828765;29;20199;-49
2023/02/06 10:44:52;;;;;;;29.02;26.13;;;1.80;99.90;;;;;;4828692;29;20199;-47
2023/02/06 10:47:39;;;;;;;27.63;24.70;;;1.90;99.90;;;;;;4828539;29;20402;-50
2023/02/06 10:50:32;;;;;;;30.55;27.45;;;2.00;99.90;;;;;;4828908;29;20372;-47
2023/02/06 10:53:16;;;;;;;29.77;26.90;;;2.10;99.90;;;;;;4823462;29;21475;-48
2023/02/06 10:55:45;;;;;;;28.65;25.88;;;2.10;99.90;;;;;;4828429;29;20331;-44
2023/02/06 10:58:36;;;;;;;29.60;26.52;;;2.30;99.90;;;;;;4830702;29;20411;-45
2023/02/06 11:01:05;;;;;;;30.15;26.90;;;2.40;99.90;;;;;;4831963;29;20199;-50
2023/02/06 11:03:32;;;;;;;29.77;26.83;;;2.40;99.90;;;;;;4831062;29;20209;-46
2023/02/06 11:06:00;;;;;;;30.80;27.45;;;2.40;99.90;;;;;;4831851;29;20222;-52
2023/02/06 11:08:37;;;;;;;29.90;26.80;;;2.50;99.90;;;;;;4831654;29;20212;-47
2023/02/06 11:11:25;;;;;;;31.33;27.20;;;2.50;99.90;;;;;;4831937;29;20689;-51
2023/02/06 11:14:19;;;;;;;29.15;26.25;;;2.60;99.90;;;;;;4831702;29;20192;-45
2023/02/06 11:16:46;;;;;;;30.80;27.60;;;2.70;99.90;;;;;;4831120;29;20184;-45
2023/02/06 11:19:14;;;;;;;31.10;27.85;;;2.70;99.90;;;;;;4831705;29;20192;-46
2023/02/06 11:21:40;;;;;;;30.92;27.70;;;2.80;99.90;;;;;;4845493;29;20214;-45
2023/02/06 11:24:11;;;;;;;29.33;26.20;;;2.70;99.90;;;;;;4831106;29;20244;-45
2023/02/06 11:26:46;;;;;;;31.63;28.33;;;2.70;99.90;;;;;;4829611;29;20354;-46
2023/02/06 11:29:18;;;;;;;32.28;28.85;;;2.70;99.90;;;;;;4831527;29;20274;-48
2023/02/06 11:31:48;;;;;;;31.55;28.35;;;2.70;99.90;;;;;;4830957;29;20188;-46
2023/02/06 11:34:26;;;;;;;30.80;27.55;;;2.80;99.90;;;;;;4831170;29;20197;-45
2023/02/06 11:37:02;;;;;;;30.52;27.48;;;2.80;99.90;;;;;;4831338;29;20923;-47
2023/02/06 11:39:35;;;;;;;33.13;29.52;;;2.80;99.90;;;;;;4831425;29;20215;-51
2023/02/06 11:42:20;;;;;;;29.55;26.55;;;2.90;99.90;;;;;;4831376;29;20363;-44
2023/02/06 11:44:49;;;;;;;31.98;28.77;;;3.00;99.90;;;;;;4831406;29;20656;-48
2023/02/06 11:47:31;;;;;;;31.30;27.67;;;3.10;99.90;;;;;;4830972;29;20728;-45
2023/02/06 11:50:11;;;;;;;30.70;27.60;;;3.20;99.90;;;;;;4831033;29;20253;-45
2023/02/06 11:52:38;;;;;;;32.45;29.23;;;3.30;99.90;;;;;;4831221;29;20824;-44
2023/02/06 11:55:04;;;;;;;30.52;27.65;;;3.20;99.90;;;;;;4830867;29;20615;-45
2023/02/06 11:57:32;;;;;;;31.58;28.42;;;3.20;99.90;;;;;;4831365;29;20200;-47
2023/02/06 12:00:20;;;;;;;31.23;28.20;;;3.00;99.90;;;;;;4830953;29;20864;-45
2023/02/06 12:02:50;;;;;;;30.38;27.58;;;3.00;99.90;;;;;;4830942;29;20247;-46
2023/02/06 12:05:18;;;;;;;30.15;26.95;;;2.70;99.90;;;;;;4830811;29;20189;-45
2023/02/06 12:08:02;;;;;;;30.27;27.30;;;2.80;99.90;;;;;;4830695;29;20221;-43
2023/02/06 12:10:33;;;;;;;29.30;26.40;;;2.90;99.90;;;;;;4830059;29;20643;-44
2023/02/06 12:13:12;;;;;;;29.67;26.85;;;3.10;99.90;;;;;;4830683;29;20199;-43
2023/02/06 12:15:45;;;;;;;30.50;27.52;;;3.10;99.90;;;;;;4830546;29;20296;-46
2023/02/06 12:18:27;;;;;;;29.83;26.95;;;3.20;99.90;;;;;;4830739;29;20202;-44
2023/02/06 12:20:59;;;;;;;29.58;26.70;;;3.10;99.90;;;;;;4830529;29;20547;-46
2023/02/06 12:23:35;;;;;;;29.60;26.60;;;3.00;99.90;;;;;;4831112;29;20189;-46
2023/02/06 12:26:06;;;;;;;29.88;27.00;;;3.10;99.90;;;;;;4830515;29;20258;-43
2023/02/06 12:28:50;;;;;;;29.40;26.30;;;3.10;99.90;;;;;;4830472;29;20221;-43
2023/02/06 12:31:24;;;;;;;28.40;25.75;;;3.10;99.90;;;;;;4829980;29;20555;-46
2023/02/06 12:33:53;;;;;;;29.27;26.58;;;3.20;99.90;;;;;;4830366;29;20188;-44
2023/02/06 12:36:24;;;;;;;30.15;26.80;;;3.20;99.90;;;;;;4830399;29;20614;-44
2023/02/06 12:39:15;;;;;;;30.52;27.73;;;3.20;99.90;;;;;;4830671;29;20758;-44
2023/02/06 12:41:58;;;;;;;28.25;25.55;;;3.20;99.90;;;;;;4830043;29;20749;-46
2023/02/06 12:44:40;;;;;;;29.48;26.58;;;3.20;99.90;;;;;;4830524;29;20185;-48